createdAt,value
2023-11-24T00:04:02.367Z,99680.19
2023-11-24T00:09:04.168Z,99650.28
2023-11-24T00:14:08.232Z,99650.28
2023-11-24T00:19:11.947Z,99605.19
2023-11-24T00:24:14.244Z,99630.00
2023-11-24T00:29:17.143Z,99623.63
2023-11-24T00:34:20.883Z,99656.03
2023-11-24T00:39:22.297Z,99617.63
2023-11-24T00:44:23.746Z,99621.00
2023-11-24T00:49:25.069Z,99609.84
2023-11-24T00:54:26.371Z,99602.72
2023-11-24T00:59:27.664Z,99614.91
2023-11-24T01:04:29.050Z,99608.59
2023-11-24T01:09:31.072Z,99599.25
2023-11-24T01:14:33.320Z,99604.31
2023-11-24T01:19:37.306Z,99593.28
2023-11-24T01:24:39.110Z,99576.19
2023-11-24T01:29:40.726Z,99590.34
2023-11-24T01:34:42.229Z,99574.00
2023-11-24T01:39:43.984Z,99596.53
2023-11-24T01:44:45.906Z,99609.03
2023-11-24T01:49:48.676Z,99623.13
2023-11-24T01:54:54.848Z,99695.97
2023-11-24T01:59:57.196Z,99685.72
2023-11-24T02:04:58.766Z,99707.47
2023-11-24T02:10:03.313Z,99707.38
2023-11-24T02:15:07.589Z,99706.59
2023-11-24T02:20:13.298Z,99704.69
2023-11-24T02:25:16.011Z,99712.31
2023-11-24T02:30:17.721Z,99686.28
2023-11-24T02:35:19.048Z,99667.25
2023-11-24T02:40:20.408Z,99684.72
2023-11-24T02:45:22.436Z,99686.44
2023-11-24T02:50:23.762Z,99695.97
2023-11-24T02:55:25.444Z,99685.09
2023-11-24T03:00:27.952Z,99684.97
2023-11-24T03:05:30.887Z,99683.50
2023-11-24T03:10:32.702Z,99689.59
2023-11-24T03:15:35.473Z,99644.94
2023-11-24T03:20:38.219Z,99690.00
2023-11-24T03:25:39.707Z,99654.34
2023-11-24T03:30:42.552Z,99703.06
2023-11-24T03:35:44.637Z,99665.91
2023-11-24T03:40:47.985Z,99689.56
2023-11-24T03:45:49.365Z,99697.31
2023-11-24T03:50:52.326Z,99679.00
2023-11-24T03:55:54.232Z,99671.53
2023-11-24T04:00:55.723Z,99672.88
2023-11-24T04:05:57.327Z,99669.59
2023-11-24T04:10:59.248Z,99678.75
2023-11-24T04:16:01.407Z,99687.41
2023-11-24T04:21:02.926Z,99685.03
2023-11-24T04:26:04.352Z,99674.91
2023-11-24T04:31:05.687Z,99675.19
2023-11-24T04:36:07.708Z,99659.03
2023-11-24T04:41:09.067Z,99657.34
2023-11-24T04:46:10.871Z,99666.72
2023-11-24T04:51:12.317Z,99637.13
2023-11-24T04:56:13.742Z,99654.97
2023-11-24T05:01:15.537Z,99654.69
2023-11-24T05:06:17.746Z,99647.38
2023-11-24T05:11:19.834Z,99632.28
2023-11-24T05:16:21.519Z,99661.31
2023-11-24T05:21:22.957Z,99625.56
2023-11-24T05:26:24.406Z,99637.13
2023-11-24T05:31:28.754Z,99641.22
2023-11-24T05:36:30.740Z,99636.06
2023-11-24T05:41:32.136Z,99624.44
2023-11-24T05:46:33.543Z,99620.22
2023-11-24T05:51:34.995Z,99618.06
2023-11-24T05:56:36.440Z,99599.88
2023-11-24T06:01:38.202Z,99599.22
2023-11-24T06:06:39.676Z,99574.41
2023-11-24T06:11:41.178Z,99577.75
2023-11-24T06:16:42.569Z,99575.84
2023-11-24T06:21:44.213Z,99572.94
2023-11-24T06:26:45.877Z,99571.97
2023-11-24T06:31:47.389Z,99569.53
2023-11-24T06:36:51.035Z,99559.00
2023-11-24T06:41:54.964Z,99569.53
2023-11-24T06:46:56.391Z,99558.41
2023-11-24T06:52:00.327Z,99560.44
2023-11-24T06:57:01.916Z,99566.56
2023-11-24T07:02:04.866Z,99562.59
2023-11-24T07:07:07.802Z,99557.28
2023-11-24T07:12:13.403Z,99543.09
2023-11-24T07:17:15.105Z,99551.03
2023-11-24T07:22:19.071Z,99564.56
2023-11-24T07:27:23.540Z,99561.41
2023-11-24T07:32:32.123Z,99558.75
2023-11-24T07:37:33.541Z,99559.75
2023-11-24T07:42:35.951Z,99515.56
2023-11-24T07:47:37.730Z,99543.34
2023-11-24T07:52:39.045Z,99548.84
2023-11-24T07:57:43.565Z,99544.28
2023-11-24T08:02:45.130Z,99541.19
2023-11-24T08:07:48.471Z,99547.44
2023-11-24T08:12:49.852Z,99560.97
2023-11-24T08:17:52.830Z,99541.81
2023-11-24T08:22:54.432Z,99515.91
2023-11-24T08:27:56.141Z,99503.84
2023-11-24T08:32:57.477Z,99500.91
2023-11-24T08:37:59.780Z,99463.78
2023-11-24T08:43:02.279Z,99498.25
2023-11-24T08:48:05.178Z,99483.53
2023-11-24T08:53:07.189Z,99478.94
2023-11-24T08:58:10.959Z,99477.41
2023-11-24T09:03:15.662Z,99472.06
2023-11-24T09:08:20.529Z,99454.31
2023-11-24T09:13:22.154Z,99412.41
2023-11-24T09:18:23.860Z,99424.22
2023-11-24T09:23:28.290Z,99433.88
2023-11-24T09:28:30.243Z,99424.97
2023-11-24T09:33:33.749Z,99412.41
2023-11-24T09:38:36.516Z,99396.19
2023-11-24T09:43:42.072Z,99401.53
2023-11-24T09:48:44.412Z,99411.34
2023-11-24T09:53:47.165Z,99406.28
2023-11-24T09:58:50.956Z,99399.59
2023-11-24T10:03:54.800Z,99398.22
2023-11-24T10:08:58.794Z,99382.81
2023-11-24T10:14:01.176Z,99398.53
2023-11-24T10:19:05.294Z,99392.38
2023-11-24T10:24:08.581Z,99354.81
2023-11-24T10:29:10.604Z,99376.22
2023-11-24T10:34:12.219Z,99381.09
2023-11-24T10:39:18.335Z,99362.72
2023-11-24T10:44:22.341Z,99348.94
2023-11-24T10:49:35.974Z,99331.78
2023-11-24T10:54:45.439Z,99327.03
2023-11-24T10:59:48.766Z,99320.66
2023-11-24T11:05:04.887Z,99320.72
2023-11-24T11:10:14.694Z,99317.41
2023-11-24T11:15:19.347Z,99312.78
2023-11-24T11:20:31.890Z,99304.13
2023-11-24T11:25:40.867Z,99311.94
2023-11-24T11:30:43.111Z,99307.16
2023-11-24T11:35:48.096Z,99284.13
2023-11-24T11:40:52.832Z,99271.66
2023-11-24T11:46:06.588Z,99270.84
2023-11-24T11:51:15.820Z,99256.44
2023-11-24T11:56:19.513Z,99249.47
2023-11-24T12:01:21.560Z,99245.97
2023-11-24T12:06:26.549Z,99240.41
2023-11-24T12:11:28.546Z,99219.47
2023-11-24T12:16:36.675Z,99210.19
2023-11-24T12:21:41.069Z,99214.47
2023-11-24T12:26:42.656Z,99220.00
2023-11-24T12:31:45.336Z,99202.38
2023-11-24T12:36:51.357Z,99202.78
2023-11-24T12:41:56.113Z,99197.81
2023-11-24T12:47:16.901Z,99234.75
2023-11-24T12:52:18.758Z,99221.56
2023-11-24T12:57:20.718Z,99207.44
2023-11-24T13:02:22.302Z,99215.59
2023-11-24T13:07:23.753Z,99195.28
2023-11-24T13:12:25.575Z,99194.19
2023-11-24T13:17:27.336Z,99187.69
2023-11-24T13:22:28.653Z,99181.38
2023-11-24T13:27:32.289Z,99181.78
2023-11-24T13:32:34.443Z,99180.75
2023-11-24T13:37:38.635Z,99168.38
2023-11-24T13:42:40.694Z,99185.31
2023-11-24T13:47:43.408Z,99175.41
2023-11-24T13:52:57.842Z,99124.25
2023-11-24T13:58:01.787Z,99165.84
2023-11-24T14:03:04.111Z,99182.06
2023-11-24T14:08:10.169Z,99176.97
2023-11-24T14:13:12.667Z,99192.88
2023-11-24T14:18:14.065Z,99210.91
2023-11-24T14:23:15.427Z,99206.13
2023-11-24T14:28:18.759Z,99226.50
2023-11-24T14:33:22.468Z,99198.78
2023-11-24T14:38:23.860Z,99198.28
2023-11-24T14:43:25.292Z,99186.50
2023-11-24T14:48:27.452Z,99188.34
2023-11-24T14:53:29.967Z,99180.19
2023-11-24T14:58:33.086Z,99175.03
2023-11-24T15:03:39.766Z,99192.47
2023-11-24T15:08:50.527Z,99201.91
2023-11-24T15:13:55.235Z,99193.00
2023-11-24T15:18:56.928Z,99202.16
2023-11-24T15:23:59.394Z,99210.94
2023-11-24T15:29:01.638Z,99208.63
2023-11-24T15:34:03.671Z,99218.81
2023-11-24T15:39:12.890Z,99221.06
2023-11-24T15:44:26.304Z,99202.19
2023-11-24T15:49:28.346Z,99225.28
2023-11-24T15:54:30.216Z,99214.97
2023-11-24T15:59:35.171Z,99204.84
2023-11-24T16:04:37.892Z,99225.53
2023-11-24T16:09:41.496Z,99235.53
2023-11-24T16:14:45.125Z,99231.38
2023-11-24T16:19:47.002Z,99229.03
2023-11-24T16:24:51.664Z,99249.53
2023-11-24T16:29:52.949Z,99276.94
2023-11-24T16:34:54.692Z,99277.34
2023-11-24T16:39:57.585Z,99244.94
2023-11-24T16:45:00.936Z,99243.34
2023-11-24T16:50:08.528Z,99236.63
2023-11-24T16:55:11.664Z,99238.78
2023-11-24T17:00:16.280Z,99188.56
2023-11-24T17:05:19.485Z,99233.47
2023-11-24T17:10:20.813Z,99228.91
2023-11-24T17:15:23.234Z,99220.72
2023-11-24T17:20:27.073Z,99210.31
2023-11-24T17:25:35.485Z,99234.66
2023-11-24T17:30:40.627Z,99239.22
2023-11-24T17:35:42.097Z,99224.78
2023-11-24T17:40:43.689Z,99222.13
2023-11-24T17:45:47.394Z,99221.78
2023-11-24T17:50:48.845Z,99236.91
2023-11-24T17:55:50.500Z,99232.22
2023-11-24T18:00:53.132Z,99230.66
2023-11-24T18:05:54.488Z,99229.88
2023-11-24T18:10:55.824Z,99237.31
2023-11-24T18:15:57.514Z,99223.88
2023-11-24T18:20:59.014Z,99212.94
2023-11-24T18:26:01.829Z,99210.34
2023-11-24T18:31:03.655Z,99213.56
2023-11-24T18:36:08.348Z,99200.59
2023-11-24T18:41:11.220Z,99196.16
2023-11-24T18:46:17.168Z,99204.91
2023-11-24T18:51:18.541Z,99190.03
2023-11-24T18:56:23.268Z,99198.66
2023-11-24T19:01:27.090Z,99195.03
2023-11-24T19:06:29.679Z,99201.91
2023-11-24T19:11:33.760Z,99217.53
2023-11-24T19:16:45.082Z,99212.84
2023-11-24T19:21:46.870Z,99192.88
2023-11-24T19:26:49.441Z,99194.06
2023-11-24T19:31:51.620Z,99182.16
2023-11-24T19:36:54.258Z,99163.94
2023-11-24T19:41:55.640Z,99148.94
2023-11-24T19:46:59.625Z,99161.66
2023-11-24T19:52:01.600Z,99177.50
2023-11-24T19:57:05.429Z,99168.88
2023-11-24T20:02:07.241Z,99177.97
2023-11-24T20:07:08.944Z,99169.69
2023-11-24T20:12:10.579Z,99174.72
2023-11-24T20:17:12.604Z,99179.53
2023-11-24T20:22:14.031Z,99154.91
2023-11-24T20:27:18.136Z,99164.78
2023-11-24T20:32:20.829Z,99156.38
2023-11-24T20:37:22.528Z,99144.34
2023-11-24T20:42:24.087Z,99140.66
2023-11-24T20:47:25.756Z,99166.56
2023-11-24T20:52:27.643Z,99172.22
2023-11-24T20:57:29.307Z,99162.03
2023-11-24T21:02:31.940Z,99121.22
2023-11-24T21:07:33.296Z,99162.16
2023-11-24T21:12:36.027Z,99162.53
2023-11-24T21:17:37.713Z,99154.00
2023-11-24T21:22:39.245Z,99164.91
2023-11-24T21:27:40.649Z,99159.03
2023-11-24T21:32:42.727Z,99158.50
2023-11-24T21:37:44.421Z,99146.44
2023-11-24T21:42:46.576Z,99165.69
2023-11-24T21:47:48.255Z,99175.53
2023-11-24T21:52:50.597Z,99193.59
2023-11-24T21:57:55.448Z,99195.78
2023-11-24T22:02:57.128Z,99203.63
2023-11-24T22:07:58.707Z,99208.56
2023-11-24T22:13:02.896Z,99205.38
2023-11-24T22:18:10.529Z,99198.72
2023-11-24T22:23:11.997Z,99200.53
2023-11-24T22:28:13.396Z,99199.66
2023-11-24T22:33:15.756Z,99220.88
2023-11-24T22:38:18.144Z,99217.94
2023-11-24T22:43:20.630Z,99228.03
2023-11-24T22:48:22.703Z,99247.22
2023-11-24T22:53:24.026Z,99250.59
2023-11-24T22:58:25.429Z,99264.84
2023-11-24T23:03:27.988Z,99285.81
2023-11-24T23:08:31.725Z,99279.56
2023-11-24T23:13:35.939Z,99276.78
2023-11-24T23:18:41.517Z,99280.09
2023-11-24T23:23:45.898Z,99294.88
2023-11-24T23:28:49.617Z,99313.34
2023-11-24T23:33:51.195Z,99306.84
2023-11-24T23:38:52.781Z,99289.56
2023-11-24T23:43:54.215Z,99341.31
2023-11-24T23:48:55.749Z,99358.38
2023-11-24T23:53:57.174Z,99358.16
2023-11-24T23:58:58.709Z,99361.69
